sensor_id;sensor_type;location;lat;lon;timestamp;temperature;humidity
39325;DHT22;25037;49.488;9.900;2023-03-23T00:00:54;13.80;59.90
39325;DHT22;25037;49.488;9.900;2023-03-23T00:03:21;13.80;59.80
39325;DHT22;25037;49.488;9.900;2023-03-23T00:05:47;13.80;59.90
39325;DHT22;25037;49.488;9.900;2023-03-23T00:08:19;13.80;59.90
39325;DHT22;25037;49.488;9.900;2023-03-23T00:10:49;13.80;59.90
39325;DHT22;25037;49.488;9.900;2023-03-23T00:13:18;13.90;59.90
39325;DHT22;25037;49.488;9.900;2023-03-23T00:15:46;13.80;59.90
39325;DHT22;25037;49.488;9.900;2023-03-23T00:18:14;13.80;59.90
39325;DHT22;25037;49.488;9.900;2023-03-23T00:20:51;13.90;60.00
39325;DHT22;25037;49.488;9.900;2023-03-23T00:23:18;13.90;60.10
39325;DHT22;25037;49.488;9.900;2023-03-23T00:25:46;14.00;60.10
39325;DHT22;25037;49.488;9.900;2023-03-23T00:28:12;14.00;60.10
39325;DHT22;25037;49.488;9.900;2023-03-23T00:30:38;14.00;60.10
39325;DHT22;25037;49.488;9.900;2023-03-23T00:33:04;14.10;60.10
39325;DHT22;25037;49.488;9.900;2023-03-23T00:35:30;14.00;60.10
39325;DHT22;25037;49.488;9.900;2023-03-23T00:37:56;14.00;60.20
39325;DHT22;25037;49.488;9.900;2023-03-23T00:40:24;14.00;60.20
39325;DHT22;25037;49.488;9.900;2023-03-23T00:42:49;14.00;60.30
39325;DHT22;25037;49.488;9.900;2023-03-23T00:45:15;14.00;60.50
39325;DHT22;25037;49.488;9.900;2023-03-23T00:47:41;14.00;60.60
39325;DHT22;25037;49.488;9.900;2023-03-23T00:50:12;14.00;60.70
39325;DHT22;25037;49.488;9.900;2023-03-23T00:52:42;14.00;60.90
39325;DHT22;25037;49.488;9.900;2023-03-23T00:55:07;14.00;61.10
39325;DHT22;25037;49.488;9.900;2023-03-23T00:57:33;14.00;61.10
39325;DHT22;25037;49.488;9.900;2023-03-23T00:59:58;14.00;61.20
39325;DHT22;25037;49.488;9.900;2023-03-23T01:02:25;14.00;61.40
39325;DHT22;25037;49.488;9.900;2023-03-23T01:04:51;14.00;61.50
39325;DHT22;25037;49.488;9.900;2023-03-23T01:07:20;14.00;61.60
39325;DHT22;25037;49.488;9.900;2023-03-23T01:09:48;14.00;61.30
39325;DHT22;25037;49.488;9.900;2023-03-23T01:12:14;14.00;60.60
39325;DHT22;25037;49.488;9.900;2023-03-23T01:14:41;14.10;60.00
39325;DHT22;25037;49.488;9.900;2023-03-23T01:17:07;14.20;59.50
39325;DHT22;25037;49.488;9.900;2023-03-23T01:19:33;14.30;59.10
39325;DHT22;25037;49.488;9.900;2023-03-23T01:21:58;14.30;58.40
39325;DHT22;25037;49.488;9.900;2023-03-23T01:24:24;14.40;58.00
39325;DHT22;25037;49.488;9.900;2023-03-23T01:26:50;14.50;57.40
39325;DHT22;25037;49.488;9.900;2023-03-23T01:29:15;14.60;57.10
39325;DHT22;25037;49.488;9.900;2023-03-23T01:31:41;14.70;56.90
39325;DHT22;25037;49.488;9.900;2023-03-23T01:34:08;14.70;56.50
39325;DHT22;25037;49.488;9.900;2023-03-23T01:36:35;14.80;56.10
39325;DHT22;25037;49.488;9.900;2023-03-23T01:39:04;14.80;56.10
39325;DHT22;25037;49.488;9.900;2023-03-23T01:41:31;14.90;55.70
39325;DHT22;25037;49.488;9.900;2023-03-23T01:44:05;14.90;55.50
39325;DHT22;25037;49.488;9.900;2023-03-23T01:46:35;14.90;55.20
39325;DHT22;25037;49.488;9.900;2023-03-23T01:49:20;15.00;55.10
39325;DHT22;25037;49.488;9.900;2023-03-23T01:51:51;15.00;55.00
39325;DHT22;25037;49.488;9.900;2023-03-23T01:54:18;15.10;54.80
39325;DHT22;25037;49.488;9.900;2023-03-23T01:56:52;15.20;54.70
39325;DHT22;25037;49.488;9.900;2023-03-23T01:59:20;15.10;54.50
39325;DHT22;25037;49.488;9.900;2023-03-23T02:01:46;15.20;54.50
39325;DHT22;25037;49.488;9.900;2023-03-23T02:04:13;15.20;54.40
39325;DHT22;25037;49.488;9.900;2023-03-23T02:06:41;15.20;54.20
39325;DHT22;25037;49.488;9.900;2023-03-23T02:09:07;15.20;54.10
39325;DHT22;25037;49.488;9.900;2023-03-23T02:11:32;15.20;54.00
39325;DHT22;25037;49.488;9.900;2023-03-23T02:13:58;15.20;54.00
39325;DHT22;25037;49.488;9.900;2023-03-23T02:19:31;15.20;53.90
39325;DHT22;25037;49.488;9.900;2023-03-23T02:35:58;15.20;53.80
39325;DHT22;25037;49.488;9.900;2023-03-23T02:41:19;15.30;53.70
39325;DHT22;25037;49.488;9.900;2023-03-23T02:43:47;15.30;53.60
39325;DHT22;25037;49.488;9.900;2023-03-23T02:46:15;15.30;53.50
39325;DHT22;25037;49.488;9.900;2023-03-23T02:48:43;15.30;53.60
39325;DHT22;25037;49.488;9.900;2023-03-23T02:51:10;15.30;53.60
39325;DHT22;25037;49.488;9.900;2023-03-23T02:53:40;15.30;53.60
39325;DHT22;25037;49.488;9.900;2023-03-23T02:56:08;15.30;53.70
39325;DHT22;25037;49.488;9.900;2023-03-23T02:58:35;15.30;53.80
39325;DHT22;25037;49.488;9.900;2023-03-23T03:04:06;15.20;54.00
39325;DHT22;25037;49.488;9.900;2023-03-23T03:07:00;15.10;54.20
39325;DHT22;25037;49.488;9.900;2023-03-23T03:11:58;15.00;54.60
39325;DHT22;25037;49.488;9.900;2023-03-23T03:14:31;14.80;55.00
39325;DHT22;25037;49.488;9.900;2023-03-23T03:17:21;14.80;55.20
39325;DHT22;25037;49.488;9.900;2023-03-23T03:19:51;14.70;55.50
39325;DHT22;25037;49.488;9.900;2023-03-23T03:22:19;14.60;55.60
39325;DHT22;25037;49.488;9.900;2023-03-23T03:24:47;14.50;55.80
39325;DHT22;25037;49.488;9.900;2023-03-23T03:27:16;14.50;55.90
39325;DHT22;25037;49.488;9.900;2023-03-23T03:29:45;14.50;56.10
39325;DHT22;25037;49.488;9.900;2023-03-23T03:32:15;14.50;56.20
39325;DHT22;25037;49.488;9.900;2023-03-23T03:34:42;14.40;56.40
39325;DHT22;25037;49.488;9.900;2023-03-23T03:37:08;14.40;56.50
39325;DHT22;25037;49.488;9.900;2023-03-23T03:39:37;14.40;56.50
39325;DHT22;25037;49.488;9.900;2023-03-23T03:42:04;14.40;56.50
39325;DHT22;25037;49.488;9.900;2023-03-23T03:44:30;14.40;56.40
39325;DHT22;25037;49.488;9.900;2023-03-23T03:46:56;14.40;56.50
39325;DHT22;25037;49.488;9.900;2023-03-23T03:49:22;14.40;56.60
39325;DHT22;25037;49.488;9.900;2023-03-23T03:51:48;14.40;56.70
39325;DHT22;25037;49.488;9.900;2023-03-23T03:54:13;14.50;56.60
39325;DHT22;25037;49.488;9.900;2023-03-23T03:56:39;14.50;56.80
39325;DHT22;25037;49.488;9.900;2023-03-23T03:59:07;14.50;56.70
39325;DHT22;25037;49.488;9.900;2023-03-23T04:01:34;14.50;56.80
39325;DHT22;25037;49.488;9.900;2023-03-23T04:03:59;14.50;57.30
39325;DHT22;25037;49.488;9.900;2023-03-23T04:06:25;14.50;57.40
39325;DHT22;25037;49.488;9.900;2023-03-23T04:08:57;14.40;57.30
39325;DHT22;25037;49.488;9.900;2023-03-23T04:11:24;14.50;57.20
39325;DHT22;25037;49.488;9.900;2023-03-23T04:13:50;14.40;57.40
39325;DHT22;25037;49.488;9.900;2023-03-23T04:16:16;14.50;57.40
39325;DHT22;25037;49.488;9.900;2023-03-23T04:18:42;14.40;57.30
39325;DHT22;25037;49.488;9.900;2023-03-23T04:21:08;14.40;57.40
39325;DHT22;25037;49.488;9.900;2023-03-23T04:23:34;14.40;57.30
39325;DHT22;25037;49.488;9.900;2023-03-23T04:26:01;14.40;57.20
39325;DHT22;25037;49.488;9.900;2023-03-23T04:28:28;14.40;57.40
39325;DHT22;25037;49.488;9.900;2023-03-23T04:30:55;14.40;57.20
39325;DHT22;25037;49.488;9.900;2023-03-23T04:33:24;14.40;57.00
39325;DHT22;25037;49.488;9.900;2023-03-23T04:35:56;14.40;56.90
39325;DHT22;25037;49.488;9.900;2023-03-23T04:38:22;14.50;56.60
39325;DHT22;25037;49.488;9.900;2023-03-23T04:40:51;14.50;56.50
39325;DHT22;25037;49.488;9.900;2023-03-23T04:43:26;14.60;56.20
39325;DHT22;25037;49.488;9.900;2023-03-23T04:45:56;14.70;56.00
39325;DHT22;25037;49.488;9.900;2023-03-23T04:48:23;14.70;55.70
39325;DHT22;25037;49.488;9.900;2023-03-23T04:50:49;14.80;55.40
39325;DHT22;25037;49.488;9.900;2023-03-23T04:53:16;15.00;55.20
39325;DHT22;25037;49.488;9.900;2023-03-23T04:55:43;15.00;55.00
39325;DHT22;25037;49.488;9.900;2023-03-23T04:58:09;15.10;54.80
39325;DHT22;25037;49.488;9.900;2023-03-23T05:00:36;15.10;54.70
39325;DHT22;25037;49.488;9.900;2023-03-23T05:03:02;15.20;54.50
39325;DHT22;25037;49.488;9.900;2023-03-23T05:05:28;15.20;54.40
39325;DHT22;25037;49.488;9.900;2023-03-23T05:07:57;15.30;54.30
39325;DHT22;25037;49.488;9.900;2023-03-23T05:10:23;15.30;54.30
39325;DHT22;25037;49.488;9.900;2023-03-23T05:12:49;15.30;54.20
39325;DHT22;25037;49.488;9.900;2023-03-23T05:15:16;15.40;54.10
39325;DHT22;25037;49.488;9.900;2023-03-23T05:17:42;15.40;54.00
39325;DHT22;25037;49.488;9.900;2023-03-23T05:20:16;15.50;53.90
39325;DHT22;25037;49.488;9.900;2023-03-23T05:22:48;15.50;53.70
39325;DHT22;25037;49.488;9.900;2023-03-23T05:25:15;15.50;53.70
39325;DHT22;25037;49.488;9.900;2023-03-23T05:27:41;15.50;53.60
39325;DHT22;25037;49.488;9.900;2023-03-23T05:30:14;15.60;53.60
39325;DHT22;25037;49.488;9.900;2023-03-23T05:32:44;15.60;53.60
39325;DHT22;25037;49.488;9.900;2023-03-23T05:35:11;15.70;53.60
39325;DHT22;25037;49.488;9.900;2023-03-23T05:37:38;15.70;53.50
39325;DHT22;25037;49.488;9.900;2023-03-23T05:40:05;15.70;53.50
39325;DHT22;25037;49.488;9.900;2023-03-23T05:42:33;15.70;53.40
39325;DHT22;25037;49.488;9.900;2023-03-23T05:45:00;15.70;53.40
39325;DHT22;25037;49.488;9.900;2023-03-23T05:47:26;15.70;53.40
39325;DHT22;25037;49.488;9.900;2023-03-23T05:49:52;15.80;53.30
39325;DHT22;25037;49.488;9.900;2023-03-23T05:52:18;15.80;53.20
39325;DHT22;25037;49.488;9.900;2023-03-23T05:54:44;15.80;53.20
39325;DHT22;25037;49.488;9.900;2023-03-23T05:57:10;15.90;53.20
39325;DHT22;25037;49.488;9.900;2023-03-23T05:59:36;15.90;53.20
39325;DHT22;25037;49.488;9.900;2023-03-23T06:02:02;15.90;53.20
39325;DHT22;25037;49.488;9.900;2023-03-23T06:04:28;16.00;53.20
39325;DHT22;25037;49.488;9.900;2023-03-23T06:06:54;16.00;53.30
39325;DHT22;25037;49.488;9.900;2023-03-23T06:09:20;16.00;53.40
39325;DHT22;25037;49.488;9.900;2023-03-23T06:11:46;16.00;53.50
39325;DHT22;25037;49.488;9.900;2023-03-23T06:14:13;16.00;53.50
39325;DHT22;25037;49.488;9.900;2023-03-23T06:16:38;16.10;53.60
39325;DHT22;25037;49.488;9.900;2023-03-23T06:19:04;16.10;53.50
39325;DHT22;25037;49.488;9.900;2023-03-23T06:21:30;16.10;53.60
39325;DHT22;25037;49.488;9.900;2023-03-23T06:23:57;16.10;53.70
39325;DHT22;25037;49.488;9.900;2023-03-23T06:26:28;16.20;53.70
39325;DHT22;25037;49.488;9.900;2023-03-23T06:28:56;16.20;53.60
39325;DHT22;25037;49.488;9.900;2023-03-23T06:31:23;16.20;53.60
39325;DHT22;25037;49.488;9.900;2023-03-23T06:33:49;16.20;53.40
39325;DHT22;25037;49.488;9.900;2023-03-23T06:36:15;16.20;53.50
39325;DHT22;25037;49.488;9.900;2023-03-23T06:38:42;16.20;53.20
39325;DHT22;25037;49.488;9.900;2023-03-23T06:41:07;16.30;53.10
39325;DHT22;25037;49.488;9.900;2023-03-23T06:43:34;16.30;52.90
39325;DHT22;25037;49.488;9.900;2023-03-23T06:46:02;16.30;52.70
39325;DHT22;25037;49.488;9.900;2023-03-23T06:48:28;16.30;52.50
39325;DHT22;25037;49.488;9.900;2023-03-23T06:50:53;16.40;52.50
39325;DHT22;25037;49.488;9.900;2023-03-23T06:53:19;16.50;52.30
39325;DHT22;25037;49.488;9.900;2023-03-23T06:55:46;16.50;52.30
39325;DHT22;25037;49.488;9.900;2023-03-23T06:58:12;16.60;52.20
39325;DHT22;25037;49.488;9.900;2023-03-23T07:00:38;16.60;52.10
39325;DHT22;25037;49.488;9.900;2023-03-23T07:03:06;16.70;52.10
39325;DHT22;25037;49.488;9.900;2023-03-23T07:05:33;16.70;52.10
39325;DHT22;25037;49.488;9.900;2023-03-23T07:08:01;16.70;52.10
39325;DHT22;25037;49.488;9.900;2023-03-23T07:10:27;16.70;52.20
39325;DHT22;25037;49.488;9.900;2023-03-23T07:12:53;16.70;52.30
39325;DHT22;25037;49.488;9.900;2023-03-23T07:15:19;16.70;52.30
39325;DHT22;25037;49.488;9.900;2023-03-23T07:17:44;16.70;52.20
39325;DHT22;25037;49.488;9.900;2023-03-23T07:20:11;16.80;52.20
39325;DHT22;25037;49.488;9.900;2023-03-23T07:22:37;16.80;52.20
39325;DHT22;25037;49.488;9.900;2023-03-23T07:25:04;16.80;52.30
39325;DHT22;25037;49.488;9.900;2023-03-23T07:27:30;16.80;52.40
39325;DHT22;25037;49.488;9.900;2023-03-23T07:29:56;16.80;52.40
39325;DHT22;25037;49.488;9.900;2023-03-23T07:32:23;16.80;52.40
39325;DHT22;25037;49.488;9.900;2023-03-23T07:34:49;16.80;52.50
39325;DHT22;25037;49.488;9.900;2023-03-23T07:37:15;16.80;52.40
39325;DHT22;25037;49.488;9.900;2023-03-23T07:39:42;16.70;52.60
39325;DHT22;25037;49.488;9.900;2023-03-23T07:42:08;16.70;52.60
39325;DHT22;25037;49.488;9.900;2023-03-23T07:44:34;16.70;52.60
39325;DHT22;25037;49.488;9.900;2023-03-23T07:46:59;16.70;52.70
39325;DHT22;25037;49.488;9.900;2023-03-23T07:49:25;16.70;52.70
39325;DHT22;25037;49.488;9.900;2023-03-23T07:51:52;16.70;52.70
39325;DHT22;25037;49.488;9.900;2023-03-23T07:54:18;16.80;52.70
39325;DHT22;25037;49.488;9.900;2023-03-23T07:56:44;16.80;52.50
39325;DHT22;25037;49.488;9.900;2023-03-23T07:59:11;17.00;52.40
39325;DHT22;25037;49.488;9.900;2023-03-23T08:01:38;17.10;52.20
39325;DHT22;25037;49.488;9.900;2023-03-23T08:04:04;17.30;52.00
39325;DHT22;25037;49.488;9.900;2023-03-23T08:06:32;17.30;51.90
39325;DHT22;25037;49.488;9.900;2023-03-23T08:08:58;17.40;51.70
39325;DHT22;25037;49.488;9.900;2023-03-23T08:11:32;17.60;51.50
39325;DHT22;25037;49.488;9.900;2023-03-23T08:13:58;17.80;51.40
39325;DHT22;25037;49.488;9.900;2023-03-23T08:16:24;18.00;51.10
39325;DHT22;25037;49.488;9.900;2023-03-23T08:18:50;18.20;50.70
39325;DHT22;25037;49.488;9.900;2023-03-23T08:21:17;18.30;50.60
39325;DHT22;25037;49.488;9.900;2023-03-23T08:23:43;18.30;50.40
39325;DHT22;25037;49.488;9.900;2023-03-23T08:26:09;18.30;50.30
39325;DHT22;25037;49.488;9.900;2023-03-23T08:28:36;18.30;50.20
39325;DHT22;25037;49.488;9.900;2023-03-23T08:31:10;18.30;50.10
39325;DHT22;25037;49.488;9.900;2023-03-23T08:33:37;18.40;49.90
39325;DHT22;25037;49.488;9.900;2023-03-23T08:36:03;18.50;49.90
39325;DHT22;25037;49.488;9.900;2023-03-23T08:38:29;18.50;49.60
39325;DHT22;25037;49.488;9.900;2023-03-23T08:41:02;18.60;49.50
39325;DHT22;25037;49.488;9.900;2023-03-23T08:43:30;18.70;49.40
39325;DHT22;25037;49.488;9.900;2023-03-23T08:45:57;18.90;49.20
39325;DHT22;25037;49.488;9.900;2023-03-23T08:48:23;19.00;49.00
39325;DHT22;25037;49.488;9.900;2023-03-23T08:50:49;19.00;48.80
39325;DHT22;25037;49.488;9.900;2023-03-23T08:53:15;19.00;48.90
39325;DHT22;25037;49.488;9.900;2023-03-23T08:55:41;19.00;48.90
39325;DHT22;25037;49.488;9.900;2023-03-23T08:58:08;18.80;49.10
39325;DHT22;25037;49.488;9.900;2023-03-23T09:00:34;18.70;49.30
39325;DHT22;25037;49.488;9.900;2023-03-23T09:03:00;18.40;49.80
39325;DHT22;25037;49.488;9.900;2023-03-23T09:05:28;18.30;50.10
39325;DHT22;25037;49.488;9.900;2023-03-23T09:07:56;18.20;50.50
39325;DHT22;25037;49.488;9.900;2023-03-23T09:10:25;18.10;50.90
39325;DHT22;25037;49.488;9.900;2023-03-23T09:12:54;18.00;51.10
39325;DHT22;25037;49.488;9.900;2023-03-23T09:15:20;18.00;51.30
39325;DHT22;25037;49.488;9.900;2023-03-23T09:17:48;17.90;51.60
39325;DHT22;25037;49.488;9.900;2023-03-23T09:20:18;17.90;51.70
39325;DHT22;25037;49.488;9.900;2023-03-23T09:22:47;18.00;51.90
39325;DHT22;25037;49.488;9.900;2023-03-23T09:25:15;17.90;52.00
39325;DHT22;25037;49.488;9.900;2023-03-23T09:27:41;17.90;52.20
39325;DHT22;25037;49.488;9.900;2023-03-23T09:30:10;17.80;52.30
39325;DHT22;25037;49.488;9.900;2023-03-23T09:32:37;17.80;52.50
39325;DHT22;25037;49.488;9.900;2023-03-23T09:35:04;17.80;52.70
39325;DHT22;25037;49.488;9.900;2023-03-23T09:37:33;17.80;52.90
39325;DHT22;25037;49.488;9.900;2023-03-23T09:40:00;17.70;53.00
39325;DHT22;25037;49.488;9.900;2023-03-23T09:45:25;17.70;53.30
39325;DHT22;25037;49.488;9.900;2023-03-23T09:48:18;17.70;53.40
39325;DHT22;25037;49.488;9.900;2023-03-23T09:50:48;17.70;53.50
39325;DHT22;25037;49.488;9.900;2023-03-23T09:53:22;17.70;53.60
39325;DHT22;25037;49.488;9.900;2023-03-23T09:55:49;17.80;53.70
39325;DHT22;25037;49.488;9.900;2023-03-23T09:58:17;17.90;53.60
39325;DHT22;25037;49.488;9.900;2023-03-23T10:00:57;18.00;53.40
39325;DHT22;25037;49.488;9.900;2023-03-23T10:03:32;18.10;53.30
39325;DHT22;25037;49.488;9.900;2023-03-23T10:05:59;18.30;53.20
39325;DHT22;25037;49.488;9.900;2023-03-23T10:08:27;18.30;53.10
39325;DHT22;25037;49.488;9.900;2023-03-23T10:11:32;18.30;53.10
39325;DHT22;25037;49.488;9.900;2023-03-23T10:14:07;18.40;53.00
39325;DHT22;25037;49.488;9.900;2023-03-23T10:22:10;18.40;52.90
39325;DHT22;25037;49.488;9.900;2023-03-23T10:24:46;18.30;53.10
39325;DHT22;25037;49.488;9.900;2023-03-23T10:27:20;18.20;53.40
39325;DHT22;25037;49.488;9.900;2023-03-23T10:29:54;18.20;53.50
39325;DHT22;25037;49.488;9.900;2023-03-23T10:32:37;18.00;53.60
39325;DHT22;25037;49.488;9.900;2023-03-23T10:35:11;17.90;53.70
39325;DHT22;25037;49.488;9.900;2023-03-23T10:37:41;17.80;54.00
39325;DHT22;25037;49.488;9.900;2023-03-23T10:40:20;17.70;54.20
39325;DHT22;25037;49.488;9.900;2023-03-23T10:42:49;17.50;54.40
39325;DHT22;25037;49.488;9.900;2023-03-23T10:45:27;17.40;54.60
39325;DHT22;25037;49.488;9.900;2023-03-23T10:48:00;17.30;55.10
39325;DHT22;25037;49.488;9.900;2023-03-23T10:50:29;17.30;55.40
39325;DHT22;25037;49.488;9.900;2023-03-23T10:52:57;17.30;55.00
39325;DHT22;25037;49.488;9.900;2023-03-23T10:55:34;17.20;55.70
39325;DHT22;25037;49.488;9.900;2023-03-23T10:58:12;17.20;55.80
39325;DHT22;25037;49.488;9.900;2023-03-23T11:00:45;17.20;56.30
39325;DHT22;25037;49.488;9.900;2023-03-23T11:05:43;17.10;57.00
39325;DHT22;25037;49.488;9.900;2023-03-23T11:08:15;17.10;57.30
39325;DHT22;25037;49.488;9.900;2023-03-23T11:13:18;17.30;57.10
39325;DHT22;25037;49.488;9.900;2023-03-23T11:15:46;17.50;56.60
39325;DHT22;25037;49.488;9.900;2023-03-23T11:18:19;17.70;56.10
39325;DHT22;25037;49.488;9.900;2023-03-23T11:20:46;17.90;55.80
39325;DHT22;25037;49.488;9.900;2023-03-23T11:23:21;17.90;55.50
39325;DHT22;25037;49.488;9.900;2023-03-23T11:28:37;18.30;54.80
39325;DHT22;25037;49.488;9.900;2023-03-23T11:31:05;18.30;54.70
39325;DHT22;25037;49.488;9.900;2023-03-23T11:34:03;18.40;54.60
39325;DHT22;25037;49.488;9.900;2023-03-23T11:36:51;18.40;54.50
39325;DHT22;25037;49.488;9.900;2023-03-23T11:41:50;18.90;54.00
39325;DHT22;25037;49.488;9.900;2023-03-23T11:44:16;19.00;53.80
39325;DHT22;25037;49.488;9.900;2023-03-23T11:47:04;19.20;53.40
39325;DHT22;25037;49.488;9.900;2023-03-23T11:52:23;19.50;52.80
39325;DHT22;25037;49.488;9.900;2023-03-23T11:55:00;19.70;52.50
39325;DHT22;25037;49.488;9.900;2023-03-23T11:57:29;19.90;52.40
39325;DHT22;25037;49.488;9.900;2023-03-23T11:59:56;19.80;52.20
39325;DHT22;25037;49.488;9.900;2023-03-23T12:02:52;19.80;52.10
39325;DHT22;25037;49.488;9.900;2023-03-23T12:08:23;19.80;52.10
39325;DHT22;25037;49.488;9.900;2023-03-23T12:11:07;19.80;52.10
39325;DHT22;25037;49.488;9.900;2023-03-23T12:13:47;19.70;52.00
39325;DHT22;25037;49.488;9.900;2023-03-23T12:21:49;19.00;53.30
39325;DHT22;25037;49.488;9.900;2023-03-23T12:29:51;18.50;54.40
39325;DHT22;25037;49.488;9.900;2023-03-23T12:38:18;18.40;54.70
39325;DHT22;25037;49.488;9.900;2023-03-23T12:43:51;18.30;55.10
39325;DHT22;25037;49.488;9.900;2023-03-23T12:49:35;18.20;55.40
39325;DHT22;25037;49.488;9.900;2023-03-23T12:52:35;18.30;55.30
39325;DHT22;25037;49.488;9.900;2023-03-23T12:55:15;18.30;55.10
39325;DHT22;25037;49.488;9.900;2023-03-23T12:58:01;18.40;55.10
39325;DHT22;25037;49.488;9.900;2023-03-23T13:08:47;18.80;54.40
39325;DHT22;25037;49.488;9.900;2023-03-23T13:11:25;18.90;54.30
39325;DHT22;25037;49.488;9.900;2023-03-23T13:13:58;19.00;53.90
39325;DHT22;25037;49.488;9.900;2023-03-23T13:22:24;18.90;53.50
39325;DHT22;25037;49.488;9.900;2023-03-23T13:24:52;19.00;53.10
39325;DHT22;25037;49.488;9.900;2023-03-23T13:27:24;19.10;53.00
39325;DHT22;25037;49.488;9.900;2023-03-23T13:29:51;19.20;52.50
39325;DHT22;25037;49.488;9.900;2023-03-23T13:32:18;19.20;52.20
39325;DHT22;25037;49.488;9.900;2023-03-23T13:34:46;19.30;51.90
39325;DHT22;25037;49.488;9.900;2023-03-23T13:50:03;19.40;51.30
39325;DHT22;25037;49.488;9.900;2023-03-23T13:57:56;19.20;50.90
39325;DHT22;25037;49.488;9.900;2023-03-23T14:00:33;19.10;51.20
39325;DHT22;25037;49.488;9.900;2023-03-23T14:05:40;19.20;51.20
39325;DHT22;25037;49.488;9.900;2023-03-23T14:08:11;19.10;51.30
39325;DHT22;25037;49.488;9.900;2023-03-23T14:10:54;19.20;51.00
39325;DHT22;25037;49.488;9.900;2023-03-23T14:16:13;19.30;50.80
39325;DHT22;25037;49.488;9.900;2023-03-23T14:18:41;19.30;50.90
39325;DHT22;25037;49.488;9.900;2023-03-23T14:21:16;19.30;50.80
39325;DHT22;25037;49.488;9.900;2023-03-23T14:23:42;19.30;50.70
39325;DHT22;25037;49.488;9.900;2023-03-23T14:26:17;19.30;50.60
39325;DHT22;25037;49.488;9.900;2023-03-23T14:28:45;19.20;50.70
39325;DHT22;25037;49.488;9.900;2023-03-23T14:31:24;19.10;50.80
39325;DHT22;25037;49.488;9.900;2023-03-23T14:33:51;19.00;50.80
39325;DHT22;25037;49.488;9.900;2023-03-23T14:36:22;18.90;50.90
39325;DHT22;25037;49.488;9.900;2023-03-23T14:41:23;18.70;51.20
39325;DHT22;25037;49.488;9.900;2023-03-23T14:43:50;18.60;51.40
39325;DHT22;25037;49.488;9.900;2023-03-23T14:46:16;18.50;51.50
39325;DHT22;25037;49.488;9.900;2023-03-23T14:48:42;18.50;51.50
39325;DHT22;25037;49.488;9.900;2023-03-23T14:51:18;18.50;51.60
39325;DHT22;25037;49.488;9.900;2023-03-23T14:53:44;18.50;51.60
39325;DHT22;25037;49.488;9.900;2023-03-23T14:56:14;18.50;51.70
39325;DHT22;25037;49.488;9.900;2023-03-23T14:58:48;18.50;51.80
39325;DHT22;25037;49.488;9.900;2023-03-23T15:01:19;18.50;51.60
39325;DHT22;25037;49.488;9.900;2023-03-23T15:06:20;18.70;51.50
39325;DHT22;25037;49.488;9.900;2023-03-23T15:08:47;18.70;51.40
39325;DHT22;25037;49.488;9.900;2023-03-23T15:13:45;18.80;51.30
39325;DHT22;25037;49.488;9.900;2023-03-23T15:16:14;18.90;51.30
39325;DHT22;25037;49.488;9.900;2023-03-23T15:18:49;18.90;51.20
39325;DHT22;25037;49.488;9.900;2023-03-23T15:21:23;19.00;51.20
39325;DHT22;25037;49.488;9.900;2023-03-23T15:23:49;19.00;51.20
39325;DHT22;25037;49.488;9.900;2023-03-23T15:26:25;18.90;51.40
39325;DHT22;25037;49.488;9.900;2023-03-23T15:29:20;18.90;51.30
39325;DHT22;25037;49.488;9.900;2023-03-23T15:31:55;18.90;51.40
39325;DHT22;25037;49.488;9.900;2023-03-23T15:34:29;18.80;51.40
39325;DHT22;25037;49.488;9.900;2023-03-23T15:37:04;18.80;51.60
39325;DHT22;25037;49.488;9.900;2023-03-23T15:39:31;18.70;51.80
39325;DHT22;25037;49.488;9.900;2023-03-23T15:41:58;18.70;51.90
39325;DHT22;25037;49.488;9.900;2023-03-23T15:44:28;18.60;52.00
39325;DHT22;25037;49.488;9.900;2023-03-23T15:47:14;18.50;52.20
39325;DHT22;25037;49.488;9.900;2023-03-23T15:49:41;18.50;52.30
39325;DHT22;25037;49.488;9.900;2023-03-23T15:52:11;18.50;52.40
39325;DHT22;25037;49.488;9.900;2023-03-23T15:54:37;18.50;52.40
39325;DHT22;25037;49.488;9.900;2023-03-23T15:57:03;18.50;52.40
39325;DHT22;25037;49.488;9.900;2023-03-23T15:59:29;18.50;52.40
39325;DHT22;25037;49.488;9.900;2023-03-23T16:01:56;18.50;52.50
39325;DHT22;25037;49.488;9.900;2023-03-23T16:04:23;18.50;52.50
39325;DHT22;25037;49.488;9.900;2023-03-23T16:06:50;18.50;52.60
39325;DHT22;25037;49.488;9.900;2023-03-23T16:09:19;18.40;52.60
39325;DHT22;25037;49.488;9.900;2023-03-23T16:11:46;18.40;52.80
39325;DHT22;25037;49.488;9.900;2023-03-23T16:14:13;18.40;52.80
39325;DHT22;25037;49.488;9.900;2023-03-23T16:16:47;18.30;52.90
39325;DHT22;25037;49.488;9.900;2023-03-23T16:19:17;18.30;53.00
39325;DHT22;25037;49.488;9.900;2023-03-23T16:21:45;18.20;53.10
39325;DHT22;25037;49.488;9.900;2023-03-23T16:24:12;18.30;53.20
39325;DHT22;25037;49.488;9.900;2023-03-23T16:26:39;18.20;53.30
39325;DHT22;25037;49.488;9.900;2023-03-23T16:29:11;18.10;53.30
39325;DHT22;25037;49.488;9.900;2023-03-23T16:31:45;18.10;53.30
39325;DHT22;25037;49.488;9.900;2023-03-23T16:34:12;18.00;53.40
39325;DHT22;25037;49.488;9.900;2023-03-23T16:36:38;18.00;53.50
39325;DHT22;25037;49.488;9.900;2023-03-23T16:39:05;18.00;53.60
39325;DHT22;25037;49.488;9.900;2023-03-23T16:41:32;18.00;53.80
39325;DHT22;25037;49.488;9.900;2023-03-23T16:43:59;17.90;53.80
39325;DHT22;25037;49.488;9.900;2023-03-23T16:46:25;17.80;53.90
39325;DHT22;25037;49.488;9.900;2023-03-23T16:48:52;17.80;54.00
39325;DHT22;25037;49.488;9.900;2023-03-23T16:51:19;17.80;54.10
39325;DHT22;25037;49.488;9.900;2023-03-23T16:53:46;17.70;54.20
39325;DHT22;25037;49.488;9.900;2023-03-23T16:56:13;17.70;54.30
39325;DHT22;25037;49.488;9.900;2023-03-23T16:58:40;17.60;54.40
39325;DHT22;25037;49.488;9.900;2023-03-23T17:01:07;17.60;54.50
39325;DHT22;25037;49.488;9.900;2023-03-23T17:03:34;17.50;54.60
39325;DHT22;25037;49.488;9.900;2023-03-23T17:06:01;17.40;54.70
39325;DHT22;25037;49.488;9.900;2023-03-23T17:08:29;17.40;54.70
39325;DHT22;25037;49.488;9.900;2023-03-23T17:10:57;17.40;54.80
39325;DHT22;25037;49.488;9.900;2023-03-23T17:13:23;17.30;54.90
39325;DHT22;25037;49.488;9.900;2023-03-23T17:15:54;17.20;55.10
39325;DHT22;25037;49.488;9.900;2023-03-23T17:18:23;17.20;55.20
39325;DHT22;25037;49.488;9.900;2023-03-23T17:20:52;17.10;55.40
39325;DHT22;25037;49.488;9.900;2023-03-23T17:23:19;17.00;55.60
39325;DHT22;25037;49.488;9.900;2023-03-23T17:25:46;17.00;55.70
39325;DHT22;25037;49.488;9.900;2023-03-23T17:28:13;16.90;55.90
39325;DHT22;25037;49.488;9.900;2023-03-23T17:30:41;16.90;55.90
39325;DHT22;25037;49.488;9.900;2023-03-23T17:33:10;16.90;56.10
39325;DHT22;25037;49.488;9.900;2023-03-23T17:35:37;16.80;56.20
39325;DHT22;25037;49.488;9.900;2023-03-23T17:38:03;16.70;56.30
39325;DHT22;25037;49.488;9.900;2023-03-23T17:40:30;16.70;56.50